createdAt,value
2018-06-19T00:01:50.782Z,100829.28
2018-06-19T00:04:19.277Z,100830.48
2018-06-19T00:06:47.538Z,100831.80
2018-06-19T00:09:15.794Z,100822.32
2018-06-19T00:11:44.191Z,100824.64
2018-06-19T00:14:12.327Z,100822.23
2018-06-19T00:16:40.634Z,100827.29
2018-06-19T00:19:09.040Z,100825.58
2018-06-19T00:21:40.064Z,100829.39
2018-06-19T00:24:08.775Z,100821.95
2018-06-19T00:26:37.147Z,100824.38
2018-06-19T00:29:05.285Z,100844.13
2018-06-19T00:31:33.649Z,100834.68
2018-06-19T00:34:01.749Z,100834.72
2018-06-19T00:36:29.807Z,100835.69
2018-06-19T00:38:58.143Z,100835.47
2018-06-19T00:41:26.266Z,100828.11
2018-06-19T00:43:54.382Z,100830.45
2018-06-19T00:46:25.200Z,100836.12
2018-06-19T00:48:53.371Z,100836.98
2018-06-19T00:51:21.434Z,100833.05
2018-06-19T00:53:49.697Z,100843.97
2018-06-19T00:56:29.215Z,100843.61
2018-06-19T00:58:57.255Z,100841.06
2018-06-19T01:01:25.611Z,100842.31
2018-06-19T01:03:53.688Z,100837.16
2018-06-19T01:06:21.783Z,100839.38
2018-06-19T01:08:50.050Z,100843.76
2018-06-19T01:11:18.418Z,100840.95
2018-06-19T01:13:47.540Z,100843.06
2018-06-19T01:16:15.619Z,100840.75
2018-06-19T01:18:43.691Z,100836.14
2018-06-19T01:21:11.835Z,100838.50
2018-06-19T01:23:40.006Z,100842.53
2018-06-19T01:26:09.478Z,100837.28
2018-06-19T01:28:37.585Z,100840.11
2018-06-19T01:31:05.857Z,100832.36
2018-06-19T01:33:33.987Z,100838.27
2018-06-19T01:36:02.075Z,100835.53
2018-06-19T01:38:30.157Z,100831.76
2018-06-19T01:40:58.569Z,100837.76
2018-06-19T01:43:26.655Z,100840.66
2018-06-19T01:45:54.771Z,100837.52
2018-06-19T01:48:22.818Z,100836.00
2018-06-19T01:50:50.889Z,100837.76
2018-06-19T01:53:19.826Z,100839.87
2018-06-19T01:55:47.904Z,100844.33
2018-06-19T01:58:16.098Z,100841.98
2018-06-19T02:00:44.367Z,100838.22
2018-06-19T02:03:12.439Z,100841.53
2018-06-19T02:05:40.826Z,100843.01
2018-06-19T02:08:09.080Z,100836.86
2018-06-19T02:10:37.317Z,100842.74
2018-06-19T02:13:05.458Z,100838.02
2018-06-19T02:15:33.626Z,100834.48
2018-06-19T02:18:01.823Z,100844.64
2018-06-19T02:20:29.874Z,100843.64
2018-06-19T02:22:58.070Z,100841.75
2018-06-19T02:25:26.149Z,100843.30
2018-06-19T02:27:54.279Z,100843.82
2018-06-19T02:30:22.359Z,100852.62
2018-06-19T02:32:50.574Z,100852.80
2018-06-19T02:35:18.861Z,100857.22
2018-06-19T02:37:46.957Z,100849.80
2018-06-19T02:40:15.063Z,100860.88
2018-06-19T02:42:43.371Z,100862.45
2018-06-19T02:45:11.459Z,100860.37
2018-06-19T02:47:39.731Z,100863.98
2018-06-19T02:50:07.849Z,100864.93
2018-06-19T02:52:35.908Z,100861.83
2018-06-19T02:55:04.040Z,100860.94
2018-06-19T02:57:32.190Z,100859.55
2018-06-19T03:00:00.268Z,100865.17
2018-06-19T03:02:28.346Z,100867.63
2018-06-19T03:04:56.426Z,100863.55
2018-06-19T03:07:24.728Z,100866.23
2018-06-19T03:09:52.844Z,100861.81
2018-06-19T03:12:20.924Z,100864.91
2018-06-19T03:14:49.180Z,100870.88
2018-06-19T03:17:17.535Z,100873.53
2018-06-19T03:19:45.642Z,100873.89
2018-06-19T03:22:13.727Z,100870.14
2018-06-19T03:24:41.888Z,100870.97
2018-06-19T03:27:10.053Z,100866.67
2018-06-19T03:29:38.938Z,100877.58
2018-06-19T03:32:07.078Z,100884.59
2018-06-19T03:34:35.199Z,100872.01
2018-06-19T03:37:03.312Z,100877.83
2018-06-19T03:39:31.451Z,100884.27
2018-06-19T03:41:59.664Z,100887.52
2018-06-19T03:44:27.782Z,100879.26
2018-06-19T03:46:55.865Z,100876.59
2018-06-19T03:49:23.975Z,100886.33
2018-06-19T03:51:52.071Z,100881.75
2018-06-19T03:54:20.559Z,100881.41
2018-06-19T03:56:48.641Z,100880.67
2018-06-19T03:59:16.726Z,100886.75
2018-06-19T04:01:44.836Z,100890.04
2018-06-19T04:04:12.871Z,100887.30
2018-06-19T04:06:41.286Z,100892.14
2018-06-19T04:09:09.365Z,100888.91
2018-06-19T04:11:37.919Z,100892.52
2018-06-19T04:14:05.993Z,100898.39
2018-06-19T04:16:34.207Z,100896.97
2018-06-19T04:19:02.287Z,100903.59
2018-06-19T04:21:30.659Z,100904.27
2018-06-19T04:23:58.942Z,100893.95
2018-06-19T04:26:27.019Z,100893.68
2018-06-19T04:28:55.798Z,100900.55
2018-06-19T04:31:23.916Z,100902.70
2018-06-19T04:33:52.056Z,100904.08
2018-06-19T04:36:20.668Z,100902.02
2018-06-19T04:38:48.876Z,100903.34
2018-06-19T04:41:17.094Z,100898.44
2018-06-19T04:43:45.266Z,100897.03
2018-06-19T04:46:13.566Z,100894.12
2018-06-19T04:48:41.647Z,100897.97
2018-06-19T04:51:09.731Z,100892.10
2018-06-19T04:53:37.830Z,100886.72
2018-06-19T04:56:05.976Z,100890.13
2018-06-19T04:58:34.047Z,100889.92
2018-06-19T05:01:02.123Z,100902.34
2018-06-19T05:03:30.247Z,100907.77
2018-06-19T05:05:58.393Z,100916.40
2018-06-19T05:08:26.786Z,100920.55
2018-06-19T05:10:54.895Z,100920.93
2018-06-19T05:13:23.011Z,100926.31
2018-06-19T05:15:51.107Z,100940.17
2018-06-19T05:18:19.378Z,100946.14
2018-06-19T05:20:47.458Z,100944.43
2018-06-19T05:23:15.676Z,100943.43
2018-06-19T05:25:43.838Z,100940.56
2018-06-19T05:28:11.975Z,100947.30
2018-06-19T05:30:40.416Z,100946.53
2018-06-19T05:33:10.419Z,100948.78
2018-06-19T05:35:38.630Z,100953.17
2018-06-19T05:38:06.721Z,100957.66
2018-06-19T05:40:34.836Z,100955.53
2018-06-19T05:43:02.979Z,100953.92
2018-06-19T05:45:31.163Z,100952.50
2018-06-19T05:47:59.536Z,100951.08
2018-06-19T05:50:27.790Z,100952.80
2018-06-19T05:52:56.193Z,100955.59
2018-06-19T05:55:24.454Z,100956.52
2018-06-19T05:57:52.600Z,100959.23
2018-06-19T06:00:28.917Z,100957.42
2018-06-19T06:03:00.607Z,100967.29
2018-06-19T06:05:28.781Z,100963.19
2018-06-19T06:07:57.113Z,100971.41
2018-06-19T06:10:25.474Z,100975.77
2018-06-19T06:12:53.572Z,100976.80
2018-06-19T06:15:21.946Z,100972.08
2018-06-19T06:17:51.298Z,100974.03
2018-06-19T06:20:19.399Z,100965.81
2018-06-19T06:22:47.614Z,100978.30
2018-06-19T06:25:15.760Z,100965.08
2018-06-19T06:27:43.939Z,100969.34
2018-06-19T06:30:12.022Z,100968.92
2018-06-19T06:32:40.099Z,100978.53
2018-06-19T06:35:08.219Z,100972.83
2018-06-19T06:37:36.416Z,100969.94
2018-06-19T06:40:04.697Z,100966.77
2018-06-19T06:42:32.814Z,100971.45
2018-06-19T06:45:01.115Z,100979.06
2018-06-19T06:47:29.299Z,100969.16
2018-06-19T06:49:57.362Z,100968.59
2018-06-19T06:52:25.621Z,100973.59
2018-06-19T06:54:53.798Z,100972.23
2018-06-19T06:57:21.943Z,100966.81
2018-06-19T06:59:50.081Z,100968.13
2018-06-19T07:02:18.293Z,100975.63
2018-06-19T07:04:46.407Z,100969.52
2018-06-19T07:07:14.679Z,100962.49
2018-06-19T07:09:42.787Z,100972.87
2018-06-19T07:12:11.008Z,100974.75
2018-06-19T07:14:39.132Z,100975.86
2018-06-19T07:17:07.507Z,100975.03
2018-06-19T07:19:35.693Z,100977.52
2018-06-19T07:22:03.858Z,100981.84
2018-06-19T07:24:31.930Z,100978.91
2018-06-19T07:27:00.545Z,100976.23
2018-06-19T07:29:28.690Z,100975.92
2018-06-19T07:31:56.796Z,100981.91
2018-06-19T07:34:24.969Z,100978.58
2018-06-19T07:36:53.188Z,100963.83
2018-06-19T07:39:21.683Z,100970.14
2018-06-19T07:41:50.720Z,100963.95
2018-06-19T07:44:18.799Z,100968.36
2018-06-19T07:46:46.918Z,100972.70
2018-06-19T07:49:15.067Z,100970.02
2018-06-19T07:51:43.182Z,100971.38
2018-06-19T07:54:11.390Z,100962.95
2018-06-19T07:56:39.972Z,100961.63
2018-06-19T07:59:08.128Z,100969.76
2018-06-19T08:01:36.278Z,100973.83
2018-06-19T08:04:05.628Z,100969.27
2018-06-19T08:06:33.983Z,100961.14
2018-06-19T08:09:02.079Z,100969.57
2018-06-19T08:11:30.294Z,100975.12
2018-06-19T08:13:58.340Z,100976.34
2018-06-19T08:16:26.438Z,100969.97
2018-06-19T08:18:54.616Z,100970.60
2018-06-19T08:21:22.994Z,100973.77
2018-06-19T08:23:51.951Z,100964.41
2018-06-19T08:26:20.539Z,100969.24
2018-06-19T08:28:48.671Z,100971.42
2018-06-19T08:31:16.910Z,100966.48
2018-06-19T08:33:44.948Z,100961.89
2018-06-19T08:36:13.084Z,100971.86
2018-06-19T08:38:42.428Z,100965.83
2018-06-19T08:41:10.603Z,100968.61
2018-06-19T08:43:38.761Z,100965.20
2018-06-19T08:46:06.827Z,100960.99
2018-06-19T08:48:35.001Z,100964.80
2018-06-19T08:51:03.126Z,100968.18
2018-06-19T08:53:31.302Z,100960.15
2018-06-19T08:55:59.394Z,100965.03
2018-06-19T08:58:27.466Z,100959.33
2018-06-19T09:00:56.644Z,100964.16
2018-06-19T09:03:24.793Z,100963.44
2018-06-19T09:05:52.873Z,100965.93
2018-06-19T09:08:21.239Z,100971.66
2018-06-19T09:10:49.310Z,100964.87
2018-06-19T09:13:18.308Z,100967.31
2018-06-19T09:15:46.495Z,100972.00
2018-06-19T09:18:14.871Z,100966.07
2018-06-19T09:20:43.110Z,100972.73
2018-06-19T09:23:11.386Z,100963.92
2018-06-19T09:25:39.479Z,100958.99
2018-06-19T09:28:07.635Z,100958.30
2018-06-19T09:30:36.538Z,100960.45
2018-06-19T09:33:04.911Z,100968.69
2018-06-19T09:35:33.112Z,100964.02
2018-06-19T09:38:01.400Z,100968.54
2018-06-19T09:40:29.511Z,100965.61
2018-06-19T09:42:57.634Z,100969.86
2018-06-19T09:45:25.747Z,100966.06
2018-06-19T09:47:53.932Z,100971.58
2018-06-19T09:50:22.332Z,100966.22
2018-06-19T09:52:50.431Z,100971.95
2018-06-19T09:55:18.520Z,100975.67
2018-06-19T09:57:46.687Z,100978.02
2018-06-19T10:00:49.357Z,100977.24
2018-06-19T10:03:17.645Z,100973.84
2018-06-19T10:05:45.866Z,100980.53
2018-06-19T10:08:25.090Z,100985.97
2018-06-19T10:11:09.991Z,100977.53
2018-06-19T10:13:38.299Z,100974.28
2018-06-19T10:16:06.385Z,100978.91
2018-06-19T10:18:34.627Z,100981.37
2018-06-19T10:21:02.940Z,100984.80
2018-06-19T10:23:31.050Z,100994.06
2018-06-19T10:25:59.172Z,100987.92
2018-06-19T10:28:27.212Z,100984.47
2018-06-19T10:30:55.443Z,101000.72
2018-06-19T10:33:23.614Z,101000.94
2018-06-19T10:35:52.394Z,100999.11
2018-06-19T10:38:20.490Z,100995.91
2018-06-19T10:40:48.611Z,100989.91
2018-06-19T10:43:16.744Z,101000.76
2018-06-19T10:45:44.842Z,100996.16
2018-06-19T10:48:14.363Z,100995.52
2018-06-19T10:50:42.592Z,100999.91
2018-06-19T10:53:10.716Z,100998.44
2018-06-19T10:55:38.790Z,101004.20
2018-06-19T10:58:07.047Z,100994.25
2018-06-19T11:00:35.125Z,101009.52
2018-06-19T11:03:03.317Z,101005.06
2018-06-19T11:05:31.424Z,100996.00
2018-06-19T11:07:59.495Z,100999.52
2018-06-19T11:10:27.827Z,101004.36
2018-06-19T11:12:55.933Z,101001.81
2018-06-19T11:15:24.109Z,101000.88
2018-06-19T11:17:52.658Z,101005.61
2018-06-19T11:20:20.850Z,101005.89
2018-06-19T11:22:48.911Z,101017.11
2018-06-19T11:25:16.987Z,101001.89
2018-06-19T11:27:45.092Z,101003.84
2018-06-19T11:30:13.255Z,101006.55
2018-06-19T11:32:41.447Z,100998.73
2018-06-19T11:35:09.514Z,101002.25
2018-06-19T11:37:37.596Z,101000.06
2018-06-19T11:40:05.658Z,100989.26
2018-06-19T11:42:33.744Z,100991.00
2018-06-19T11:45:01.823Z,100996.08
2018-06-19T11:47:30.074Z,100995.98
2018-06-19T11:49:58.141Z,100991.59
2018-06-19T11:52:26.255Z,100985.33
2018-06-19T11:54:55.264Z,100996.80
2018-06-19T11:57:23.460Z,100991.64
2018-06-19T11:59:51.582Z,100991.91
2018-06-19T12:02:19.678Z,100988.88
2018-06-19T12:04:47.796Z,100988.05
2018-06-19T12:07:15.871Z,100984.17
2018-06-19T12:09:44.108Z,100980.26
2018-06-19T12:12:12.278Z,100982.01
2018-06-19T12:14:40.368Z,100976.78
2018-06-19T12:17:08.765Z,100968.48
2018-06-19T12:19:36.845Z,100958.12
2018-06-19T12:22:04.938Z,100958.55
2018-06-19T12:24:33.563Z,100957.16
2018-06-19T12:27:01.643Z,100952.52
2018-06-19T12:29:29.730Z,100939.93
2018-06-19T12:31:57.827Z,100953.55
2018-06-19T12:34:25.922Z,100945.95
2018-06-19T12:36:54.063Z,100952.86
2018-06-19T12:39:23.131Z,100949.12
2018-06-19T12:41:51.226Z,100943.13
2018-06-19T12:44:19.324Z,100942.19
2018-06-19T12:46:47.619Z,100935.56
2018-06-19T12:50:23.939Z,100955.44
2018-06-19T12:53:04.345Z,100957.39
2018-06-19T12:55:43.940Z,100953.20
2018-06-19T12:58:12.152Z,100952.92
2018-06-19T13:00:40.254Z,100947.83
2018-06-19T13:03:19.711Z,100956.22
2018-06-19T13:05:59.201Z,100954.95
2018-06-19T13:08:27.275Z,100951.25
2018-06-19T13:10:55.350Z,100954.98
2018-06-19T13:13:35.066Z,100952.48
2018-06-19T13:16:03.261Z,100954.34
2018-06-19T13:18:43.310Z,100940.52
2018-06-19T13:21:11.485Z,100942.97
2018-06-19T13:23:39.672Z,100957.41
2018-06-19T13:26:07.886Z,100957.05
2018-06-19T13:30:05.203Z,100949.30
2018-06-19T13:32:33.984Z,100946.79
2018-06-19T13:35:03.391Z,100942.78
2018-06-19T13:37:31.501Z,100946.59
2018-06-19T13:41:11.529Z,100944.31
2018-06-19T13:43:50.887Z,100940.16
2018-06-19T13:46:19.031Z,100944.21
2018-06-19T13:48:47.167Z,100943.92
2018-06-19T13:51:15.466Z,100939.14
2018-06-19T13:53:44.394Z,100933.62
2018-06-19T13:57:27.398Z,100938.60
2018-06-19T13:59:55.590Z,100934.82
2018-06-19T14:02:23.739Z,100934.45
2018-06-19T14:04:53.171Z,100931.36
2018-06-19T14:07:22.468Z,100935.37
2018-06-19T14:10:01.956Z,100939.13
2018-06-19T14:13:05.941Z,100933.33
2018-06-19T14:15:38.282Z,100933.67
2018-06-19T14:18:06.691Z,100933.82
2018-06-19T14:20:34.814Z,100930.69
2018-06-19T14:23:02.982Z,100926.22
2018-06-19T14:25:31.057Z,100930.22
2018-06-19T14:27:59.133Z,100934.70
2018-06-19T14:30:27.355Z,100924.99
2018-06-19T14:32:55.510Z,100923.25
2018-06-19T14:35:23.615Z,100921.53
2018-06-19T14:37:51.891Z,100920.50
2018-06-19T14:40:20.231Z,100934.12
2018-06-19T14:42:48.477Z,100928.31
2018-06-19T14:45:16.540Z,100930.03
2018-06-19T14:47:45.014Z,100927.11
2018-06-19T14:50:13.539Z,100925.80
2018-06-19T14:52:41.618Z,100922.70
2018-06-19T14:55:10.577Z,100931.55
2018-06-19T14:57:39.052Z,100928.97
2018-06-19T15:00:08.524Z,100935.91
2018-06-19T15:02:36.647Z,100935.55
2018-06-19T15:05:05.279Z,100922.34
2018-06-19T15:07:37.194Z,100927.10
2018-06-19T15:10:07.277Z,100930.69
2018-06-19T15:12:35.459Z,100922.66
2018-06-19T15:15:03.592Z,100923.96
2018-06-19T15:17:31.778Z,100925.20
2018-06-19T15:20:00.266Z,100927.02
2018-06-19T15:22:28.527Z,100931.84
2018-06-19T15:24:56.649Z,100935.42
2018-06-19T15:27:24.933Z,100929.52
2018-06-19T15:29:53.795Z,100932.50
2018-06-19T15:32:22.265Z,100925.66
2018-06-19T15:34:50.486Z,100931.09
2018-06-19T15:37:18.668Z,100924.49
2018-06-19T15:39:46.870Z,100923.19
2018-06-19T15:42:15.109Z,100922.56
2018-06-19T15:44:43.248Z,100923.36
2018-06-19T15:47:11.340Z,100912.91
2018-06-19T15:49:39.520Z,100925.20
2018-06-19T15:52:07.715Z,100911.87
2018-06-19T15:54:35.967Z,100922.30
2018-06-19T15:57:04.266Z,100917.33
2018-06-19T15:59:32.378Z,100927.97
2018-06-19T16:02:00.477Z,100924.17
2018-06-19T16:04:28.632Z,100926.70
2018-06-19T16:06:56.868Z,100918.83
2018-06-19T16:09:25.000Z,100919.68
2018-06-19T16:11:53.890Z,100919.94
2018-06-19T16:14:21.987Z,100919.59
2018-06-19T16:16:50.138Z,100913.20
2018-06-19T16:19:18.290Z,100917.47
2018-06-19T16:21:46.615Z,100911.71
2018-06-19T16:24:14.906Z,100914.66
2018-06-19T16:26:43.345Z,100918.87
2018-06-19T16:29:11.434Z,100914.47
2018-06-19T16:31:39.692Z,100910.09
2018-06-19T16:34:07.806Z,100908.44
2018-06-19T16:36:36.016Z,100921.52
2018-06-19T16:39:06.731Z,100915.45
2018-06-19T16:41:34.886Z,100912.84
2018-06-19T16:44:05.082Z,100914.59
2018-06-19T16:46:33.238Z,100912.43
2018-06-19T16:49:01.405Z,100904.61
2018-06-19T16:51:29.538Z,100915.92
2018-06-19T16:53:57.868Z,100907.99
2018-06-19T16:56:26.390Z,100906.72
2018-06-19T16:58:54.686Z,100903.71
2018-06-19T17:01:22.998Z,100904.13
2018-06-19T17:03:51.107Z,100903.67
2018-06-19T17:06:19.210Z,100897.36
2018-06-19T17:08:47.359Z,100898.19
2018-06-19T17:11:15.482Z,100895.88
2018-06-19T17:13:43.590Z,100898.12
2018-06-19T17:16:11.920Z,100896.40
2018-06-19T17:18:40.446Z,100898.05
2018-06-19T17:21:08.573Z,100895.48
2018-06-19T17:23:36.674Z,100897.67
2018-06-19T17:26:05.015Z,100895.17
2018-06-19T17:28:33.156Z,100888.16
2018-06-19T17:31:01.260Z,100892.93
2018-06-19T17:33:29.567Z,100885.48
2018-06-19T17:35:57.626Z,100894.73
2018-06-19T17:38:25.815Z,100896.42
2018-06-19T17:40:54.503Z,100897.28
2018-06-19T17:43:22.809Z,100890.73
2018-06-19T17:45:50.867Z,100886.77
2018-06-19T17:48:19.033Z,100890.27
2018-06-19T17:50:47.310Z,100889.81
2018-06-19T17:53:15.569Z,100881.98
2018-06-19T17:55:43.933Z,100877.22
2018-06-19T17:58:12.106Z,100884.64
2018-06-19T18:00:40.268Z,100885.53
2018-06-19T18:03:08.379Z,100880.78
2018-06-19T18:05:36.694Z,100878.56
2018-06-19T18:08:05.081Z,100876.84
2018-06-19T18:10:33.163Z,100882.53
2018-06-19T18:13:01.428Z,100879.45
2018-06-19T18:15:29.537Z,100876.81
2018-06-19T18:17:57.610Z,100870.80
2018-06-19T18:20:25.748Z,100872.48
2018-06-19T18:22:54.551Z,100878.12
2018-06-19T18:25:22.692Z,100877.70
2018-06-19T18:27:50.875Z,100877.26
2018-06-19T18:30:19.023Z,100880.72
2018-06-19T18:32:47.367Z,100876.40
2018-06-19T18:35:15.545Z,100874.23
2018-06-19T18:37:43.706Z,100875.58
2018-06-19T18:40:11.794Z,100876.48
2018-06-19T18:42:41.051Z,100883.00
2018-06-19T18:45:09.245Z,100880.78
2018-06-19T18:47:37.391Z,100877.34
2018-06-19T18:50:05.975Z,100877.34
2018-06-19T18:52:34.282Z,100870.84
2018-06-19T18:55:02.703Z,100870.84
2018-06-19T18:57:30.818Z,100870.84
2018-06-19T18:59:59.141Z,100870.84
2018-06-19T19:02:27.223Z,100865.65
2018-06-19T19:04:55.590Z,100865.66
2018-06-19T19:15:54.039Z,100873.02
2018-06-19T19:18:27.315Z,100870.44
2018-06-19T19:20:56.559Z,100866.52
2018-06-19T19:23:24.944Z,100871.74
2018-06-19T19:25:53.067Z,100869.59
2018-06-19T19:28:26.514Z,100871.73
2018-06-19T19:30:55.050Z,100872.17
2018-06-19T19:33:24.143Z,100878.70
2018-06-19T19:35:52.449Z,100876.07
2018-06-19T19:38:26.124Z,100874.79
2018-06-19T19:40:54.943Z,100875.22
2018-06-19T19:43:23.059Z,100878.67
2018-06-19T19:45:51.201Z,100882.13
2018-06-19T19:48:24.559Z,100883.42
2018-06-19T19:50:53.010Z,100885.52
2018-06-19T19:53:21.174Z,100887.23
2018-06-19T19:55:54.831Z,100889.03
2018-06-19T19:58:28.359Z,100892.47
2018-06-19T20:00:56.619Z,100888.16
2018-06-19T20:03:25.011Z,100893.32
2018-06-19T20:05:53.279Z,100897.21
2018-06-19T20:08:23.055Z,100898.55
2018-06-19T20:10:52.027Z,100901.54
2018-06-19T20:13:20.243Z,100900.61
2018-06-19T20:15:49.006Z,100914.49
2018-06-19T20:18:17.242Z,100910.97
2018-06-19T20:20:45.474Z,100908.36
2018-06-19T20:23:13.617Z,100914.02
2018-06-19T20:25:41.679Z,100910.14
2018-06-19T20:28:09.835Z,100915.30
2018-06-19T20:30:38.167Z,100914.44
2018-06-19T20:33:06.345Z,100919.66
2018-06-19T20:35:34.483Z,100918.30
2018-06-19T20:38:02.692Z,100922.52
2018-06-19T20:40:30.808Z,100920.33
2018-06-19T20:42:58.928Z,100921.67
2018-06-19T20:45:27.071Z,100919.91
2018-06-19T20:47:55.450Z,100918.64
2018-06-19T20:50:23.547Z,100921.34
2018-06-19T20:52:51.698Z,100921.32
2018-06-19T20:55:19.779Z,100920.23
2018-06-19T20:57:48.033Z,100925.73
2018-06-19T21:00:16.098Z,100918.88
2018-06-19T21:02:44.188Z,100922.25
2018-06-19T21:05:12.251Z,100912.83
2018-06-19T21:07:40.970Z,100925.19
2018-06-19T21:10:09.669Z,100917.22
2018-06-19T21:12:38.024Z,100921.55
2018-06-19T21:15:06.115Z,100923.38
2018-06-19T21:17:34.434Z,100922.05
2018-06-19T21:20:02.538Z,100920.61
2018-06-19T21:22:30.647Z,100928.00
2018-06-19T21:24:58.798Z,100929.70
2018-06-19T21:27:26.996Z,100929.30
2018-06-19T21:29:55.496Z,100926.32
2018-06-19T21:32:54.180Z,100930.03
2018-06-19T21:35:22.308Z,100932.75
2018-06-19T21:37:50.355Z,100930.16
2018-06-19T21:40:18.708Z,100932.41
2018-06-19T21:42:47.109Z,100928.16
2018-06-19T21:45:15.264Z,100933.35
2018-06-19T21:47:43.350Z,100927.79
2018-06-19T21:50:12.434Z,100934.55
2018-06-19T21:52:40.560Z,100937.22
2018-06-19T21:55:08.916Z,100940.88
2018-06-19T21:57:37.104Z,100934.25
2018-06-19T22:00:05.694Z,100935.98
2018-06-19T22:02:34.107Z,100938.27
2018-06-19T22:05:03.912Z,100937.93
2018-06-19T22:07:32.546Z,100936.55
2018-06-19T22:10:00.612Z,100938.98
2018-06-19T22:12:28.829Z,100945.02
2018-06-19T22:14:56.980Z,100941.33
2018-06-19T22:17:25.667Z,100946.43
2018-06-19T22:19:53.842Z,100944.22
2018-06-19T22:22:21.941Z,100940.25
2018-06-19T22:24:50.060Z,100937.86
2018-06-19T22:27:18.340Z,100934.58
2018-06-19T22:29:46.475Z,100938.24
2018-06-19T22:32:14.735Z,100933.77
2018-06-19T22:34:43.031Z,100939.58
2018-06-19T22:37:14.348Z,100938.12
2018-06-19T22:39:45.264Z,100937.15
2018-06-19T22:42:16.825Z,100936.75
2018-06-19T22:44:45.335Z,100941.11
2018-06-19T22:47:13.416Z,100937.22
2018-06-19T22:49:41.482Z,100936.25
2018-06-19T22:52:09.616Z,100934.11
2018-06-19T22:54:37.702Z,100928.48
2018-06-19T22:57:05.779Z,100931.23
2018-06-19T22:59:34.237Z,100927.16
2018-06-19T23:02:02.543Z,100933.66
2018-06-19T23:04:31.110Z,100930.20
2018-06-19T23:06:59.226Z,100932.30
2018-06-19T23:09:27.360Z,100924.05
2018-06-19T23:11:55.911Z,100924.48
2018-06-19T23:14:24.099Z,100927.11
2018-06-19T23:16:52.551Z,100930.65
2018-06-19T23:19:20.636Z,100926.81
2018-06-19T23:21:48.893Z,100925.40
2018-06-19T23:24:24.247Z,100924.98
2018-06-19T23:26:52.853Z,100924.88
2018-06-19T23:29:21.247Z,100920.91
2018-06-19T23:31:51.446Z,100923.92
2018-06-19T23:34:19.519Z,100923.03
2018-06-19T23:36:47.709Z,100920.73
2018-06-19T23:39:17.776Z,100925.77
2018-06-19T23:41:47.091Z,100923.62
2018-06-19T23:44:16.449Z,100931.02
2018-06-19T23:46:45.692Z,100929.73
2018-06-19T23:49:15.948Z,100928.91
2018-06-19T23:51:45.820Z,100927.73
2018-06-19T23:54:16.056Z,100932.66
2018-06-19T23:56:45.541Z,100926.13
2018-06-19T23:59:15.789Z,100924.60
